sensor_id;sensor_type;location;lat;lon;timestamp;P1;durP1;ratioP1;P2;durP2;ratioP2
37379;SDS011;23252;-33.992;18.480;2023-05-10T00:15:35;19.55;;;10.60;;
37379;SDS011;23252;-33.992;18.480;2023-05-10T00:18:02;27.63;;;10.25;;
37379;SDS011;23252;-33.992;18.480;2023-05-10T00:20:28;23.93;;;8.97;;
37379;SDS011;23252;-33.992;18.480;2023-05-10T00:22:55;20.70;;;8.70;;
37379;SDS011;23252;-33.992;18.480;2023-05-10T00:25:21;23.60;;;8.75;;
37379;SDS011;23252;-33.992;18.480;2023-05-10T00:27:48;22.83;;;8.05;;
37379;SDS011;23252;-33.992;18.480;2023-05-10T00:30:15;24.15;;;8.48;;
37379;SDS011;23252;-33.992;18.480;2023-05-10T00:35:08;15.65;;;7.88;;
37379;SDS011;23252;-33.992;18.480;2023-05-10T00:37:35;17.85;;;7.95;;
37379;SDS011;23252;-33.992;18.480;2023-05-10T00:40:01;17.50;;;8.05;;
37379;SDS011;23252;-33.992;18.480;2023-05-10T00:42:28;30.83;;;8.30;;
37379;SDS011;23252;-33.992;18.480;2023-05-10T00:44:55;24.83;;;8.53;;
37379;SDS011;23252;-33.992;18.480;2023-05-10T00:47:22;27.75;;;8.70;;
37379;SDS011;23252;-33.992;18.480;2023-05-10T00:49:48;21.20;;;8.13;;
37379;SDS011;23252;-33.992;18.480;2023-05-10T00:52:15;16.02;;;7.45;;
37379;SDS011;23252;-33.992;18.480;2023-05-10T00:54:41;18.30;;;7.57;;
37379;SDS011;23252;-33.992;18.480;2023-05-10T00:57:08;16.73;;;7.38;;
37379;SDS011;23252;-33.992;18.480;2023-05-10T00:59:35;19.20;;;6.85;;
37379;SDS011;23252;-33.992;18.480;2023-05-10T01:02:01;14.00;;;7.60;;
37379;SDS011;23252;-33.992;18.480;2023-05-10T01:04:28;16.05;;;7.32;;
37379;SDS011;23252;-33.992;18.480;2023-05-10T01:06:55;14.73;;;6.97;;
37379;SDS011;23252;-33.992;18.480;2023-05-10T01:09:22;14.73;;;7.00;;
37379;SDS011;23252;-33.992;18.480;2023-05-10T01:11:51;23.52;;;6.88;;
37379;SDS011;23252;-33.992;18.480;2023-05-10T01:14:18;15.40;;;7.07;;
37379;SDS011;23252;-33.992;18.480;2023-05-10T01:16:45;23.35;;;7.30;;
37379;SDS011;23252;-33.992;18.480;2023-05-10T01:19:24;15.68;;;7.40;;
37379;SDS011;23252;-33.992;18.480;2023-05-10T01:27:36;14.55;;;6.95;;
37379;SDS011;23252;-33.992;18.480;2023-05-10T01:35:42;13.63;;;6.60;;
37379;SDS011;23252;-33.992;18.480;2023-05-10T01:41:05;12.90;;;6.05;;
37379;SDS011;23252;-33.992;18.480;2023-05-10T01:46:44;14.05;;;5.80;;
37379;SDS011;23252;-33.992;18.480;2023-05-10T01:49:29;10.60;;;5.78;;
37379;SDS011;23252;-33.992;18.480;2023-05-10T01:52:04;15.00;;;5.85;;
37379;SDS011;23252;-33.992;18.480;2023-05-10T01:54:35;14.02;;;6.57;;
37379;SDS011;23252;-33.992;18.480;2023-05-10T01:57:33;16.42;;;5.60;;
37379;SDS011;23252;-33.992;18.480;2023-05-10T02:00:07;13.27;;;5.10;;
37379;SDS011;23252;-33.992;18.480;2023-05-10T02:02:45;9.00;;;5.03;;
37379;SDS011;23252;-33.992;18.480;2023-05-10T02:05:14;12.00;;;4.65;;
37379;SDS011;23252;-33.992;18.480;2023-05-10T02:07:42;11.43;;;4.50;;
37379;SDS011;23252;-33.992;18.480;2023-05-10T02:10:10;10.60;;;4.35;;
37379;SDS011;23252;-33.992;18.480;2023-05-10T02:12:42;12.60;;;4.68;;
37379;SDS011;23252;-33.992;18.480;2023-05-10T02:15:11;11.32;;;4.22;;
37379;SDS011;23252;-33.992;18.480;2023-05-10T02:17:42;9.07;;;4.07;;
37379;SDS011;23252;-33.992;18.480;2023-05-10T02:20:09;9.13;;;4.32;;
37379;SDS011;23252;-33.992;18.480;2023-05-10T02:25:04;11.50;;;4.80;;
37379;SDS011;23252;-33.992;18.480;2023-05-10T02:27:34;11.80;;;4.65;;
37379;SDS011;23252;-33.992;18.480;2023-05-10T02:30:02;10.52;;;5.18;;
37379;SDS011;23252;-33.992;18.480;2023-05-10T02:32:30;11.40;;;5.10;;
37379;SDS011;23252;-33.992;18.480;2023-05-10T02:34:57;12.40;;;5.22;;
37379;SDS011;23252;-33.992;18.480;2023-05-10T02:37:26;12.75;;;5.47;;
37379;SDS011;23252;-33.992;18.480;2023-05-10T02:39:54;10.55;;;4.55;;
37379;SDS011;23252;-33.992;18.480;2023-05-10T02:42:25;12.60;;;5.18;;
37379;SDS011;23252;-33.992;18.480;2023-05-10T02:44:54;7.55;;;4.32;;
37379;SDS011;23252;-33.992;18.480;2023-05-10T02:47:26;10.90;;;4.57;;
37379;SDS011;23252;-33.992;18.480;2023-05-10T02:49:53;9.27;;;4.28;;
37379;SDS011;23252;-33.992;18.480;2023-05-10T02:52:24;10.82;;;4.53;;
37379;SDS011;23252;-33.992;18.480;2023-05-10T02:54:58;8.52;;;4.35;;
37379;SDS011;23252;-33.992;18.480;2023-05-10T02:57:28;7.45;;;4.53;;
37379;SDS011;23252;-33.992;18.480;2023-05-10T02:59:59;12.68;;;4.63;;
37379;SDS011;23252;-33.992;18.480;2023-05-10T03:02:26;9.88;;;4.65;;
37379;SDS011;23252;-33.992;18.480;2023-05-10T03:04:53;10.35;;;4.55;;
37379;SDS011;23252;-33.992;18.480;2023-05-10T03:07:19;16.58;;;5.00;;
37379;SDS011;23252;-33.992;18.480;2023-05-10T03:09:47;16.20;;;5.00;;
37379;SDS011;23252;-33.992;18.480;2023-05-10T03:20:12;14.90;;;6.10;;
37379;SDS011;23252;-33.992;18.480;2023-05-10T03:22:47;13.45;;;7.00;;
37379;SDS011;23252;-33.992;18.480;2023-05-10T03:25:18;20.75;;;7.90;;
37379;SDS011;23252;-33.992;18.480;2023-05-10T03:27:46;20.02;;;6.80;;
37379;SDS011;23252;-33.992;18.480;2023-05-10T03:30:13;19.42;;;6.72;;
37379;SDS011;23252;-33.992;18.480;2023-05-10T03:32:40;18.35;;;6.63;;
37379;SDS011;23252;-33.992;18.480;2023-05-10T03:35:07;15.88;;;5.97;;
37379;SDS011;23252;-33.992;18.480;2023-05-10T03:37:38;16.17;;;6.38;;
37379;SDS011;23252;-33.992;18.480;2023-05-10T03:40:05;23.60;;;6.93;;
37379;SDS011;23252;-33.992;18.480;2023-05-10T03:42:32;17.83;;;7.20;;
37379;SDS011;23252;-33.992;18.480;2023-05-10T03:44:59;15.00;;;6.57;;
37379;SDS011;23252;-33.992;18.480;2023-05-10T03:47:25;14.48;;;6.13;;
37379;SDS011;23252;-33.992;18.480;2023-05-10T03:49:51;13.57;;;5.95;;
37379;SDS011;23252;-33.992;18.480;2023-05-10T03:52:18;13.57;;;6.50;;
37379;SDS011;23252;-33.992;18.480;2023-05-10T03:54:44;10.75;;;5.68;;
37379;SDS011;23252;-33.992;18.480;2023-05-10T03:57:11;16.70;;;6.43;;
37379;SDS011;23252;-33.992;18.480;2023-05-10T03:59:37;12.73;;;6.13;;
37379;SDS011;23252;-33.992;18.480;2023-05-10T04:02:04;11.67;;;5.77;;
37379;SDS011;23252;-33.992;18.480;2023-05-10T04:04:30;15.68;;;6.55;;
37379;SDS011;23252;-33.992;18.480;2023-05-10T04:06:57;18.42;;;6.55;;
37379;SDS011;23252;-33.992;18.480;2023-05-10T04:09:23;17.07;;;6.93;;
37379;SDS011;23252;-33.992;18.480;2023-05-10T04:11:50;22.35;;;7.20;;
37379;SDS011;23252;-33.992;18.480;2023-05-10T04:14:17;19.67;;;8.73;;
37379;SDS011;23252;-33.992;18.480;2023-05-10T04:16:43;14.80;;;7.83;;
37379;SDS011;23252;-33.992;18.480;2023-05-10T04:19:10;14.48;;;7.18;;
37379;SDS011;23252;-33.992;18.480;2023-05-10T04:21:36;22.77;;;7.88;;
37379;SDS011;23252;-33.992;18.480;2023-05-10T04:24:03;16.00;;;7.53;;
37379;SDS011;23252;-33.992;18.480;2023-05-10T04:26:29;16.85;;;7.80;;
37379;SDS011;23252;-33.992;18.480;2023-05-10T04:28:56;20.02;;;7.07;;
37379;SDS011;23252;-33.992;18.480;2023-05-10T04:31:23;15.20;;;7.07;;
37379;SDS011;23252;-33.992;18.480;2023-05-10T04:33:49;19.40;;;8.25;;
37379;SDS011;23252;-33.992;18.480;2023-05-10T04:36:15;22.10;;;9.03;;
37379;SDS011;23252;-33.992;18.480;2023-05-10T04:38:42;21.13;;;8.27;;
37379;SDS011;23252;-33.992;18.480;2023-05-10T04:41:09;23.45;;;9.05;;
37379;SDS011;23252;-33.992;18.480;2023-05-10T04:43:37;22.77;;;9.52;;
37379;SDS011;23252;-33.992;18.480;2023-05-10T04:46:04;27.55;;;11.10;;
37379;SDS011;23252;-33.992;18.480;2023-05-10T04:48:32;22.38;;;10.35;;
37379;SDS011;23252;-33.992;18.480;2023-05-10T04:50:59;26.92;;;10.68;;
37379;SDS011;23252;-33.992;18.480;2023-05-10T04:53:25;35.55;;;11.77;;
37379;SDS011;23252;-33.992;18.480;2023-05-10T04:55:52;21.63;;;11.65;;
37379;SDS011;23252;-33.992;18.480;2023-05-10T04:58:18;25.40;;;10.65;;
37379;SDS011;23252;-33.992;18.480;2023-05-10T05:00:45;28.70;;;11.37;;
37379;SDS011;23252;-33.992;18.480;2023-05-10T05:03:11;23.88;;;11.95;;
37379;SDS011;23252;-33.992;18.480;2023-05-10T05:12:07;22.90;;;15.00;;
37379;SDS011;23252;-33.992;18.480;2023-05-10T05:18:30;22.45;;;16.83;;
37379;SDS011;23252;-33.992;18.480;2023-05-10T05:31:21;24.00;;;15.45;;
37379;SDS011;23252;-33.992;18.480;2023-05-10T05:33:47;27.10;;;14.48;;
37379;SDS011;23252;-33.992;18.480;2023-05-10T05:36:14;28.42;;;15.95;;
37379;SDS011;23252;-33.992;18.480;2023-05-10T05:38:40;32.35;;;15.68;;
37379;SDS011;23252;-33.992;18.480;2023-05-10T05:43:34;29.88;;;15.85;;
37379;SDS011;23252;-33.992;18.480;2023-05-10T05:46:00;27.53;;;14.43;;
37379;SDS011;23252;-33.992;18.480;2023-05-10T05:48:27;25.25;;;13.88;;
37379;SDS011;23252;-33.992;18.480;2023-05-10T05:50:56;30.90;;;15.45;;
37379;SDS011;23252;-33.992;18.480;2023-05-10T05:53:23;28.13;;;14.30;;
37379;SDS011;23252;-33.992;18.480;2023-05-10T05:58:23;27.25;;;14.52;;
37379;SDS011;23252;-33.992;18.480;2023-05-10T06:00:51;31.42;;;14.70;;
37379;SDS011;23252;-33.992;18.480;2023-05-10T06:03:18;26.67;;;14.23;;
37379;SDS011;23252;-33.992;18.480;2023-05-10T06:05:45;31.85;;;15.77;;
37379;SDS011;23252;-33.992;18.480;2023-05-10T08:13:40;28.77;;;17.20;;
37379;SDS011;23252;-33.992;18.480;2023-05-10T08:16:07;31.33;;;18.63;;
37379;SDS011;23252;-33.992;18.480;2023-05-10T08:18:33;30.27;;;18.30;;
37379;SDS011;23252;-33.992;18.480;2023-05-10T08:21:00;28.92;;;18.17;;
37379;SDS011;23252;-33.992;18.480;2023-05-10T08:23:26;28.67;;;17.90;;
37379;SDS011;23252;-33.992;18.480;2023-05-10T08:25:53;37.57;;;19.53;;
37379;SDS011;23252;-33.992;18.480;2023-05-10T08:28:19;34.23;;;18.87;;
37379;SDS011;23252;-33.992;18.480;2023-05-10T08:30:46;32.00;;;19.47;;
37379;SDS011;23252;-33.992;18.480;2023-05-10T08:33:12;30.50;;;17.33;;
37379;SDS011;23252;-33.992;18.480;2023-05-10T08:35:39;27.77;;;16.63;;
37379;SDS011;23252;-33.992;18.480;2023-05-10T08:40:32;33.28;;;18.98;;
37379;SDS011;23252;-33.992;18.480;2023-05-10T08:43:04;34.03;;;17.40;;
37379;SDS011;23252;-33.992;18.480;2023-05-10T08:45:35;28.70;;;17.55;;
37379;SDS011;23252;-33.992;18.480;2023-05-10T08:48:05;30.52;;;17.50;;
37379;SDS011;23252;-33.992;18.480;2023-05-10T08:50:40;27.98;;;16.70;;
37379;SDS011;23252;-33.992;18.480;2023-05-10T08:53:11;36.72;;;17.88;;
37379;SDS011;23252;-33.992;18.480;2023-05-10T08:55:39;31.20;;;18.30;;
37379;SDS011;23252;-33.992;18.480;2023-05-10T08:58:07;36.90;;;18.98;;
37379;SDS011;23252;-33.992;18.480;2023-05-10T09:00:35;29.63;;;17.88;;
37379;SDS011;23252;-33.992;18.480;2023-05-10T09:03:03;25.85;;;17.63;;
37379;SDS011;23252;-33.992;18.480;2023-05-10T09:05:31;33.88;;;17.00;;
37379;SDS011;23252;-33.992;18.480;2023-05-10T09:07:58;30.92;;;18.67;;
37379;SDS011;23252;-33.992;18.480;2023-05-10T09:10:27;29.10;;;19.70;;
37379;SDS011;23252;-33.992;18.480;2023-05-10T09:12:56;39.35;;;20.75;;
37379;SDS011;23252;-33.992;18.480;2023-05-10T09:17:49;39.27;;;23.57;;
37379;SDS011;23252;-33.992;18.480;2023-05-10T09:22:45;39.17;;;22.83;;
37379;SDS011;23252;-33.992;18.480;2023-05-10T09:25:16;35.08;;;22.48;;
37379;SDS011;23252;-33.992;18.480;2023-05-10T09:27:44;41.13;;;25.75;;
37379;SDS011;23252;-33.992;18.480;2023-05-10T09:30:23;43.25;;;24.42;;
37379;SDS011;23252;-33.992;18.480;2023-05-10T09:32:57;35.88;;;24.33;;
37379;SDS011;23252;-33.992;18.480;2023-05-10T09:35:25;30.15;;;19.65;;
37379;SDS011;23252;-33.992;18.480;2023-05-10T09:37:54;33.17;;;20.38;;
37379;SDS011;23252;-33.992;18.480;2023-05-10T09:40:23;32.47;;;17.73;;
37379;SDS011;23252;-33.992;18.480;2023-05-10T09:42:51;34.45;;;18.98;;
37379;SDS011;23252;-33.992;18.480;2023-05-10T09:45:19;30.00;;;17.73;;
37379;SDS011;23252;-33.992;18.480;2023-05-10T09:47:49;36.03;;;20.38;;
37379;SDS011;23252;-33.992;18.480;2023-05-10T09:50:16;25.67;;;14.52;;
37379;SDS011;23252;-33.992;18.480;2023-05-10T09:52:58;31.70;;;15.98;;
37379;SDS011;23252;-33.992;18.480;2023-05-10T09:58:07;24.25;;;14.82;;
37379;SDS011;23252;-33.992;18.480;2023-05-10T10:00:36;27.63;;;17.15;;
37379;SDS011;23252;-33.992;18.480;2023-05-10T10:03:03;30.55;;;16.08;;
37379;SDS011;23252;-33.992;18.480;2023-05-10T10:05:34;31.17;;;19.20;;
37379;SDS011;23252;-33.992;18.480;2023-05-10T10:08:04;31.73;;;18.35;;
37379;SDS011;23252;-33.992;18.480;2023-05-10T10:10:34;33.47;;;19.20;;
37379;SDS011;23252;-33.992;18.480;2023-05-10T10:13:01;33.65;;;20.10;;
37379;SDS011;23252;-33.992;18.480;2023-05-10T10:15:28;36.70;;;20.42;;
37379;SDS011;23252;-33.992;18.480;2023-05-10T10:17:54;28.17;;;16.23;;
37379;SDS011;23252;-33.992;18.480;2023-05-10T10:20:21;22.42;;;14.75;;
37379;SDS011;23252;-33.992;18.480;2023-05-10T10:22:48;25.73;;;14.80;;
37379;SDS011;23252;-33.992;18.480;2023-05-10T10:25:15;27.65;;;13.98;;
37379;SDS011;23252;-33.992;18.480;2023-05-10T10:35:33;26.15;;;14.00;;
37379;SDS011;23252;-33.992;18.480;2023-05-10T10:38:00;23.92;;;15.40;;
37379;SDS011;23252;-33.992;18.480;2023-05-10T10:40:30;28.40;;;13.98;;
37379;SDS011;23252;-33.992;18.480;2023-05-10T10:42:58;21.38;;;12.10;;
37379;SDS011;23252;-33.992;18.480;2023-05-10T10:48:41;22.58;;;9.90;;
37379;SDS011;23252;-33.992;18.480;2023-05-10T10:51:30;19.45;;;10.02;;
37379;SDS011;23252;-33.992;18.480;2023-05-10T10:54:08;24.80;;;13.10;;
37379;SDS011;23252;-33.992;18.480;2023-05-10T10:56:35;27.50;;;14.13;;
37379;SDS011;23252;-33.992;18.480;2023-05-10T10:59:02;18.83;;;10.98;;
37379;SDS011;23252;-33.992;18.480;2023-05-10T11:01:32;21.10;;;10.05;;
37379;SDS011;23252;-33.992;18.480;2023-05-10T11:06:32;21.65;;;9.52;;
37379;SDS011;23252;-33.992;18.480;2023-05-10T11:09:18;17.33;;;9.93;;
37379;SDS011;23252;-33.992;18.480;2023-05-10T11:11:54;21.63;;;11.07;;
37379;SDS011;23252;-33.992;18.480;2023-05-10T11:14:21;20.67;;;11.95;;
37379;SDS011;23252;-33.992;18.480;2023-05-10T11:16:48;27.45;;;13.10;;
37379;SDS011;23252;-33.992;18.480;2023-05-10T11:19:15;23.20;;;12.20;;
37379;SDS011;23252;-33.992;18.480;2023-05-10T11:24:18;23.08;;;12.18;;
37379;SDS011;23252;-33.992;18.480;2023-05-10T11:26:48;24.30;;;12.43;;
37379;SDS011;23252;-33.992;18.480;2023-05-10T11:29:18;27.55;;;13.18;;
37379;SDS011;23252;-33.992;18.480;2023-05-10T11:31:46;23.15;;;14.15;;
37379;SDS011;23252;-33.992;18.480;2023-05-10T11:34:25;25.92;;;14.52;;
37379;SDS011;23252;-33.992;18.480;2023-05-10T11:36:59;29.10;;;14.50;;
37379;SDS011;23252;-33.992;18.480;2023-05-10T11:39:29;28.88;;;13.40;;
37379;SDS011;23252;-33.992;18.480;2023-05-10T11:41:57;25.10;;;13.10;;
37379;SDS011;23252;-33.992;18.480;2023-05-10T11:44:31;32.78;;;15.70;;
37379;SDS011;23252;-33.992;18.480;2023-05-10T11:47:01;22.67;;;13.57;;
37379;SDS011;23252;-33.992;18.480;2023-05-10T11:49:31;23.73;;;13.20;;
37379;SDS011;23252;-33.992;18.480;2023-05-10T11:52:04;28.58;;;13.88;;
37379;SDS011;23252;-33.992;18.480;2023-05-10T11:54:32;27.95;;;14.18;;
37379;SDS011;23252;-33.992;18.480;2023-05-10T11:57:00;26.58;;;16.20;;
37379;SDS011;23252;-33.992;18.480;2023-05-10T11:59:26;28.63;;;15.07;;
37379;SDS011;23252;-33.992;18.480;2023-05-10T12:01:53;25.15;;;15.95;;
37379;SDS011;23252;-33.992;18.480;2023-05-10T12:04:20;27.13;;;15.63;;
37379;SDS011;23252;-33.992;18.480;2023-05-10T12:06:46;27.13;;;16.75;;
37379;SDS011;23252;-33.992;18.480;2023-05-10T12:09:16;26.73;;;16.17;;
37379;SDS011;23252;-33.992;18.480;2023-05-10T12:11:42;24.67;;;15.30;;
37379;SDS011;23252;-33.992;18.480;2023-05-10T12:14:09;26.13;;;15.55;;
37379;SDS011;23252;-33.992;18.480;2023-05-10T12:16:35;33.10;;;16.40;;
37379;SDS011;23252;-33.992;18.480;2023-05-10T12:19:02;25.77;;;15.63;;
37379;SDS011;23252;-33.992;18.480;2023-05-10T12:21:29;28.77;;;15.57;;
37379;SDS011;23252;-33.992;18.480;2023-05-10T12:23:59;29.27;;;18.05;;
37379;SDS011;23252;-33.992;18.480;2023-05-10T12:26:30;29.23;;;18.67;;
37379;SDS011;23252;-33.992;18.480;2023-05-10T12:29:15;27.27;;;17.52;;
37379;SDS011;23252;-33.992;18.480;2023-05-10T12:31:53;30.65;;;17.33;;
37379;SDS011;23252;-33.992;18.480;2023-05-10T12:34:25;31.83;;;18.25;;
37379;SDS011;23252;-33.992;18.480;2023-05-10T12:36:53;33.08;;;16.45;;
37379;SDS011;23252;-33.992;18.480;2023-05-10T12:39:20;26.45;;;13.77;;
37379;SDS011;23252;-33.992;18.480;2023-05-10T12:41:46;30.45;;;12.48;;
37379;SDS011;23252;-33.992;18.480;2023-05-10T12:44:14;24.52;;;12.40;;
37379;SDS011;23252;-33.992;18.480;2023-05-10T12:46:40;25.15;;;11.00;;
37379;SDS011;23252;-33.992;18.480;2023-05-10T12:49:07;25.05;;;8.88;;
37379;SDS011;23252;-33.992;18.480;2023-05-10T12:51:33;22.30;;;8.95;;
37379;SDS011;23252;-33.992;18.480;2023-05-10T12:54:00;27.70;;;9.05;;
37379;SDS011;23252;-33.992;18.480;2023-05-10T12:56:27;22.85;;;8.00;;
37379;SDS011;23252;-33.992;18.480;2023-05-10T12:58:54;15.73;;;7.75;;
37379;SDS011;23252;-33.992;18.480;2023-05-10T13:01:20;19.42;;;7.43;;
37379;SDS011;23252;-33.992;18.480;2023-05-10T13:03:47;23.88;;;8.27;;
37379;SDS011;23252;-33.992;18.480;2023-05-10T13:06:13;23.88;;;8.60;;
37379;SDS011;23252;-33.992;18.480;2023-05-10T13:08:40;26.30;;;8.68;;
37379;SDS011;23252;-33.992;18.480;2023-05-10T13:11:09;19.17;;;7.70;;
37379;SDS011;23252;-33.992;18.480;2023-05-10T13:13:36;20.98;;;8.15;;
37379;SDS011;23252;-33.992;18.480;2023-05-10T13:16:02;25.45;;;9.13;;
37379;SDS011;23252;-33.992;18.480;2023-05-10T13:18:29;17.77;;;8.50;;
37379;SDS011;23252;-33.992;18.480;2023-05-10T13:20:56;20.08;;;9.60;;
37379;SDS011;23252;-33.992;18.480;2023-05-10T13:23:22;25.25;;;10.10;;
37379;SDS011;23252;-33.992;18.480;2023-05-10T13:25:49;25.27;;;11.15;;
37379;SDS011;23252;-33.992;18.480;2023-05-10T13:28:16;27.90;;;10.38;;
37379;SDS011;23252;-33.992;18.480;2023-05-10T13:30:42;22.20;;;10.52;;
37379;SDS011;23252;-33.992;18.480;2023-05-10T13:33:08;25.60;;;10.10;;
37379;SDS011;23252;-33.992;18.480;2023-05-10T13:35:35;24.67;;;9.50;;
37379;SDS011;23252;-33.992;18.480;2023-05-10T13:38:01;23.65;;;8.25;;
37379;SDS011;23252;-33.992;18.480;2023-05-10T13:40:28;24.35;;;8.13;;
37379;SDS011;23252;-33.992;18.480;2023-05-10T13:42:54;25.80;;;9.30;;
37379;SDS011;23252;-33.992;18.480;2023-05-10T13:45:21;25.55;;;8.55;;
37379;SDS011;23252;-33.992;18.480;2023-05-10T13:47:47;20.45;;;9.57;;
37379;SDS011;23252;-33.992;18.480;2023-05-10T13:50:20;21.08;;;9.02;;
37379;SDS011;23252;-33.992;18.480;2023-05-10T13:52:47;23.80;;;9.15;;
37379;SDS011;23252;-33.992;18.480;2023-05-10T13:55:13;23.90;;;10.95;;
37379;SDS011;23252;-33.992;18.480;2023-05-10T13:57:40;25.45;;;11.32;;
37379;SDS011;23252;-33.992;18.480;2023-05-10T14:00:08;25.35;;;9.95;;
37379;SDS011;23252;-33.992;18.480;2023-05-10T14:02:35;29.67;;;7.63;;
37379;SDS011;23252;-33.992;18.480;2023-05-10T16:15:50;23.85;;;12.95;;
37379;SDS011;23252;-33.992;18.480;2023-05-10T16:18:17;30.05;;;13.68;;
37379;SDS011;23252;-33.992;18.480;2023-05-10T16:20:43;27.85;;;13.93;;
37379;SDS011;23252;-33.992;18.480;2023-05-10T16:23:16;27.15;;;13.63;;
37379;SDS011;23252;-33.992;18.480;2023-05-10T16:25:46;29.00;;;13.10;;
37379;SDS011;23252;-33.992;18.480;2023-05-10T16:28:12;28.95;;;14.13;;
37379;SDS011;23252;-33.992;18.480;2023-05-10T16:30:43;29.05;;;14.07;;
37379;SDS011;23252;-33.992;18.480;2023-05-10T16:33:11;30.67;;;14.27;;
37379;SDS011;23252;-33.992;18.480;2023-05-10T16:38:05;22.80;;;14.20;;
37379;SDS011;23252;-33.992;18.480;2023-05-10T16:40:31;24.13;;;11.88;;
37379;SDS011;23252;-33.992;18.480;2023-05-10T16:42:58;21.67;;;11.35;;
37379;SDS011;23252;-33.992;18.480;2023-05-10T16:45:25;18.90;;;10.68;;
37379;SDS011;23252;-33.992;18.480;2023-05-10T16:47:51;18.10;;;10.65;;
37379;SDS011;23252;-33.992;18.480;2023-05-10T16:50:21;17.67;;;10.02;;
37379;SDS011;23252;-33.992;18.480;2023-05-10T16:52:48;19.65;;;10.02;;
37379;SDS011;23252;-33.992;18.480;2023-05-10T16:55:17;18.63;;;9.30;;
37379;SDS011;23252;-33.992;18.480;2023-05-10T16:57:43;21.10;;;11.32;;
37379;SDS011;23252;-33.992;18.480;2023-05-10T17:00:10;20.73;;;10.33;;
37379;SDS011;23252;-33.992;18.480;2023-05-10T17:02:37;20.35;;;11.95;;
37379;SDS011;23252;-33.992;18.480;2023-05-10T17:05:03;16.95;;;11.25;;
37379;SDS011;23252;-33.992;18.480;2023-05-10T17:07:33;16.90;;;9.20;;
37379;SDS011;23252;-33.992;18.480;2023-05-10T17:10:00;16.10;;;9.30;;
37379;SDS011;23252;-33.992;18.480;2023-05-10T17:12:26;17.88;;;9.02;;
37379;SDS011;23252;-33.992;18.480;2023-05-10T17:14:56;13.00;;;8.23;;
37379;SDS011;23252;-33.992;18.480;2023-05-10T17:17:23;18.73;;;8.73;;
37379;SDS011;23252;-33.992;18.480;2023-05-10T17:19:49;11.57;;;7.17;;
37379;SDS011;23252;-33.992;18.480;2023-05-10T17:22:22;11.70;;;6.85;;
37379;SDS011;23252;-33.992;18.480;2023-05-10T17:24:51;15.73;;;6.35;;
37379;SDS011;23252;-33.992;18.480;2023-05-10T17:27:26;9.90;;;4.97;;
37379;SDS011;23252;-33.992;18.480;2023-05-10T17:29:56;17.13;;;6.13;;
37379;SDS011;23252;-33.992;18.480;2023-05-10T17:32:23;13.35;;;5.93;;
37379;SDS011;23252;-33.992;18.480;2023-05-10T17:34:50;11.45;;;4.32;;
37379;SDS011;23252;-33.992;18.480;2023-05-10T17:37:17;11.57;;;4.50;;
37379;SDS011;23252;-33.992;18.480;2023-05-10T17:39:43;13.93;;;4.87;;
37379;SDS011;23252;-33.992;18.480;2023-05-10T17:42:13;9.45;;;3.97;;
37379;SDS011;23252;-33.992;18.480;2023-05-10T17:44:42;8.32;;;3.95;;
37379;SDS011;23252;-33.992;18.480;2023-05-10T17:47:11;8.40;;;3.42;;
37379;SDS011;23252;-33.992;18.480;2023-05-10T17:49:44;8.05;;;3.47;;
37379;SDS011;23252;-33.992;18.480;2023-05-10T17:52:16;9.55;;;3.78;;
37379;SDS011;23252;-33.992;18.480;2023-05-10T17:54:43;7.30;;;3.63;;
37379;SDS011;23252;-33.992;18.480;2023-05-10T17:57:09;6.88;;;3.10;;
37379;SDS011;23252;-33.992;18.480;2023-05-10T17:59:39;6.60;;;3.00;;
37379;SDS011;23252;-33.992;18.480;2023-05-10T18:02:05;9.35;;;3.67;;
37379;SDS011;23252;-33.992;18.480;2023-05-10T18:04:32;9.93;;;3.70;;
37379;SDS011;23252;-33.992;18.480;2023-05-10T18:06:58;10.03;;;4.03;;
37379;SDS011;23252;-33.992;18.480;2023-05-10T18:09:26;6.32;;;3.40;;
37379;SDS011;23252;-33.992;18.480;2023-05-10T18:12:01;4.90;;;2.88;;
37379;SDS011;23252;-33.992;18.480;2023-05-10T18:14:33;6.28;;;2.80;;
37379;SDS011;23252;-33.992;18.480;2023-05-10T18:17:06;5.90;;;2.95;;
37379;SDS011;23252;-33.992;18.480;2023-05-10T18:19:44;8.07;;;3.40;;
37379;SDS011;23252;-33.992;18.480;2023-05-10T18:22:13;6.05;;;2.58;;
37379;SDS011;23252;-33.992;18.480;2023-05-10T18:24:46;6.88;;;3.30;;
37379;SDS011;23252;-33.992;18.480;2023-05-10T18:27:18;6.75;;;2.70;;
37379;SDS011;23252;-33.992;18.480;2023-05-10T18:29:50;6.63;;;2.85;;
37379;SDS011;23252;-33.992;18.480;2023-05-10T18:32:22;3.60;;;2.25;;
37379;SDS011;23252;-33.992;18.480;2023-05-10T18:34:52;5.22;;;2.33;;
37379;SDS011;23252;-33.992;18.480;2023-05-10T18:37:18;6.07;;;2.55;;
37379;SDS011;23252;-33.992;18.480;2023-05-10T18:39:45;3.67;;;2.30;;
37379;SDS011;23252;-33.992;18.480;2023-05-10T18:42:11;6.10;;;2.53;;
37379;SDS011;23252;-33.992;18.480;2023-05-10T18:44:38;7.18;;;2.88;;
37379;SDS011;23252;-33.992;18.480;2023-05-10T18:47:05;4.05;;;2.47;;
37379;SDS011;23252;-33.992;18.480;2023-05-10T18:49:31;5.03;;;2.78;;
37379;SDS011;23252;-33.992;18.480;2023-05-10T18:52:01;7.90;;;3.23;;
37379;SDS011;23252;-33.992;18.480;2023-05-10T18:54:33;5.75;;;3.05;;
37379;SDS011;23252;-33.992;18.480;2023-05-10T18:57:00;7.32;;;4.15;;
37379;SDS011;23252;-33.992;18.480;2023-05-10T18:59:29;7.53;;;3.87;;
37379;SDS011;23252;-33.992;18.480;2023-05-10T19:01:58;9.02;;;4.65;;
37379;SDS011;23252;-33.992;18.480;2023-05-10T19:04:30;7.68;;;4.00;;
37379;SDS011;23252;-33.992;18.480;2023-05-10T19:07:00;7.03;;;3.15;;
37379;SDS011;23252;-33.992;18.480;2023-05-10T19:09:30;9.75;;;5.15;;
37379;SDS011;23252;-33.992;18.480;2023-05-10T19:12:03;10.23;;;5.13;;
37379;SDS011;23252;-33.992;18.480;2023-05-10T19:14:30;12.52;;;7.00;;
37379;SDS011;23252;-33.992;18.480;2023-05-10T19:16:56;13.05;;;8.35;;
37379;SDS011;23252;-33.992;18.480;2023-05-10T19:19:23;16.43;;;9.53;;
37379;SDS011;23252;-33.992;18.480;2023-05-10T19:21:52;19.90;;;15.07;;
37379;SDS011;23252;-33.992;18.480;2023-05-10T19:24:18;18.95;;;12.73;;
37379;SDS011;23252;-33.992;18.480;2023-05-10T19:26:47;18.10;;;11.57;;
37379;SDS011;23252;-33.992;18.480;2023-05-10T19:29:19;21.13;;;12.02;;
37379;SDS011;23252;-33.992;18.480;2023-05-10T19:31:47;17.40;;;9.68;;
37379;SDS011;23252;-33.992;18.480;2023-05-10T19:34:16;14.45;;;10.02;;
37379;SDS011;23252;-33.992;18.480;2023-05-10T19:36:43;17.27;;;11.05;;
37379;SDS011;23252;-33.992;18.480;2023-05-10T19:39:10;20.37;;;10.77;;
37379;SDS011;23252;-33.992;18.480;2023-05-10T19:41:37;17.48;;;10.27;;
37379;SDS011;23252;-33.992;18.480;2023-05-10T19:44:03;18.70;;;10.20;;
37379;SDS011;23252;-33.992;18.480;2023-05-10T19:46:36;15.18;;;9.75;;
37379;SDS011;23252;-33.992;18.480;2023-05-10T19:49:05;19.13;;;8.57;;
37379;SDS011;23252;-33.992;18.480;2023-05-10T19:51:32;15.87;;;9.47;;
37379;SDS011;23252;-33.992;18.480;2023-05-10T19:54:04;13.32;;;9.07;;
37379;SDS011;23252;-33.992;18.480;2023-05-10T19:56:31;12.48;;;8.30;;
37379;SDS011;23252;-33.992;18.480;2023-05-10T20:01:48;22.55;;;10.65;;
37379;SDS011;23252;-33.992;18.480;2023-05-10T20:04:17;18.98;;;10.38;;
37379;SDS011;23252;-33.992;18.480;2023-05-10T20:06:52;19.92;;;10.00;;
37379;SDS011;23252;-33.992;18.480;2023-05-10T20:09:19;17.55;;;9.10;;